sensor_id;sensor_type;location;lat;lon;timestamp;temperature;humidity
29255;DHT22;16277;48.890;2.306;2023-09-07T00:03:15;28.30;91.00
29255;DHT22;16277;48.890;2.306;2023-09-07T00:18:20;28.20;91.00
29255;DHT22;16277;48.890;2.306;2023-09-07T00:33:24;28.00;90.70
29255;DHT22;16277;48.890;2.306;2023-09-07T00:48:29;27.80;90.80
29255;DHT22;16277;48.890;2.306;2023-09-07T01:03:34;27.70;90.90
29255;DHT22;16277;48.890;2.306;2023-09-07T01:18:39;27.70;90.90
29255;DHT22;16277;48.890;2.306;2023-09-07T01:33:45;27.70;91.10
29255;DHT22;16277;48.890;2.306;2023-09-07T01:48:49;27.40;90.90
29255;DHT22;16277;48.890;2.306;2023-09-07T02:03:54;27.30;91.20
29255;DHT22;16277;48.890;2.306;2023-09-07T02:19:02;27.20;91.00
29255;DHT22;16277;48.890;2.306;2023-09-07T02:34:08;26.80;91.40
29255;DHT22;16277;48.890;2.306;2023-09-07T02:49:13;26.90;91.20
29255;DHT22;16277;48.890;2.306;2023-09-07T03:04:18;26.90;91.30
29255;DHT22;16277;48.890;2.306;2023-09-07T03:19:22;26.80;91.70
29255;DHT22;16277;48.890;2.306;2023-09-07T03:34:27;26.60;92.00
29255;DHT22;16277;48.890;2.306;2023-09-07T03:49:32;26.50;92.30
29255;DHT22;16277;48.890;2.306;2023-09-07T04:04:37;26.50;92.00
29255;DHT22;16277;48.890;2.306;2023-09-07T04:19:42;26.50;92.00
29255;DHT22;16277;48.890;2.306;2023-09-07T04:35:06;26.60;92.00
29255;DHT22;16277;48.890;2.306;2023-09-07T04:50:12;26.50;92.00
29255;DHT22;16277;48.890;2.306;2023-09-07T05:05:20;26.50;92.10
29255;DHT22;16277;48.890;2.306;2023-09-07T05:20:25;26.30;92.30
29255;DHT22;16277;48.890;2.306;2023-09-07T05:35:30;26.00;92.70
29255;DHT22;16277;48.890;2.306;2023-09-07T05:50:37;26.00;92.80
29255;DHT22;16277;48.890;2.306;2023-09-07T06:05:42;26.00;93.40
29255;DHT22;16277;48.890;2.306;2023-09-07T06:20:48;25.80;93.70
29255;DHT22;16277;48.890;2.306;2023-09-07T06:35:55;25.90;94.30
29255;DHT22;16277;48.890;2.306;2023-09-07T06:51:03;25.90;93.80
29255;DHT22;16277;48.890;2.306;2023-09-07T07:06:08;26.00;93.50
29255;DHT22;16277;48.890;2.306;2023-09-07T07:21:14;26.20;93.20
29255;DHT22;16277;48.890;2.306;2023-09-07T07:36:19;26.10;93.80
29255;DHT22;16277;48.890;2.306;2023-09-07T07:51:24;26.00;94.00
29255;DHT22;16277;48.890;2.306;2023-09-07T08:06:31;25.90;94.00
29255;DHT22;16277;48.890;2.306;2023-09-07T08:21:36;26.00;94.00
29255;DHT22;16277;48.890;2.306;2023-09-07T08:36:41;26.10;94.00
29255;DHT22;16277;48.890;2.306;2023-09-07T08:51:45;25.60;94.30
29255;DHT22;16277;48.890;2.306;2023-09-07T09:06:50;26.20;94.20
29255;DHT22;16277;48.890;2.306;2023-09-07T09:21:56;26.40;94.30
29255;DHT22;16277;48.890;2.306;2023-09-07T09:37:01;26.40;94.40
29255;DHT22;16277;48.890;2.306;2023-09-07T09:52:07;26.60;94.20
29255;DHT22;16277;48.890;2.306;2023-09-07T10:07:13;26.60;93.90
29255;DHT22;16277;48.890;2.306;2023-09-07T10:22:22;27.00;93.80
29255;DHT22;16277;48.890;2.306;2023-09-07T10:37:29;27.10;93.40
29255;DHT22;16277;48.890;2.306;2023-09-07T10:52:35;27.30;92.90
29255;DHT22;16277;48.890;2.306;2023-09-07T11:07:39;27.50;92.70
29255;DHT22;16277;48.890;2.306;2023-09-07T11:22:47;27.70;92.40
29255;DHT22;16277;48.890;2.306;2023-09-07T11:37:59;28.00;92.00
29255;DHT22;16277;48.890;2.306;2023-09-07T11:53:04;28.10;92.50
29255;DHT22;16277;48.890;2.306;2023-09-07T12:08:09;28.30;92.10
29255;DHT22;16277;48.890;2.306;2023-09-07T12:23:13;28.60;91.00
29255;DHT22;16277;48.890;2.306;2023-09-07T12:38:18;28.90;91.10
29255;DHT22;16277;48.890;2.306;2023-09-07T12:53:25;29.30;90.50
29255;DHT22;16277;48.890;2.306;2023-09-07T13:08:30;29.70;88.40
29255;DHT22;16277;48.890;2.306;2023-09-07T13:23:54;29.80;89.30
29255;DHT22;16277;48.890;2.306;2023-09-07T13:38:59;30.20;88.00
29255;DHT22;16277;48.890;2.306;2023-09-07T13:54:03;30.80;85.00
29255;DHT22;16277;48.890;2.306;2023-09-07T14:09:08;32.10;82.90
29255;DHT22;16277;48.890;2.306;2023-09-07T14:24:12;34.10;75.80
29255;DHT22;16277;48.890;2.306;2023-09-07T14:39:17;35.30;73.10
29255;DHT22;16277;48.890;2.306;2023-09-07T14:54:27;36.70;66.90
29255;DHT22;16277;48.890;2.306;2023-09-07T15:09:31;36.30;66.70
29255;DHT22;16277;48.890;2.306;2023-09-07T15:24:36;35.60;67.90
29255;DHT22;16277;48.890;2.306;2023-09-07T15:39:40;35.70;66.80
29255;DHT22;16277;48.890;2.306;2023-09-07T15:54:48;35.30;66.20
29255;DHT22;16277;48.890;2.306;2023-09-07T16:09:52;35.30;62.70
29255;DHT22;16277;48.890;2.306;2023-09-07T16:24:57;34.90;63.30
29255;DHT22;16277;48.890;2.306;2023-09-07T16:40:02;34.50;63.40
29255;DHT22;16277;48.890;2.306;2023-09-07T16:55:08;34.50;62.00
29255;DHT22;16277;48.890;2.306;2023-09-07T17:10:12;33.80;61.50
29255;DHT22;16277;48.890;2.306;2023-09-07T17:25:17;33.40;61.80
29255;DHT22;16277;48.890;2.306;2023-09-07T17:40:22;33.10;60.00
29255;DHT22;16277;48.890;2.306;2023-09-07T17:55:27;32.90;61.10
29255;DHT22;16277;48.890;2.306;2023-09-07T18:10:50;32.30;69.50
29255;DHT22;16277;48.890;2.306;2023-09-07T18:25:54;31.80;73.30
29255;DHT22;16277;48.890;2.306;2023-09-07T18:41:00;31.50;76.50
29255;DHT22;16277;48.890;2.306;2023-09-07T18:56:06;31.30;78.10
29255;DHT22;16277;48.890;2.306;2023-09-07T19:11:11;31.10;79.20
29255;DHT22;16277;48.890;2.306;2023-09-07T19:26:29;31.00;80.70
29255;DHT22;16277;48.890;2.306;2023-09-07T19:41:34;30.80;81.70
29255;DHT22;16277;48.890;2.306;2023-09-07T19:56:39;30.60;82.30
29255;DHT22;16277;48.890;2.306;2023-09-07T20:11:46;30.50;83.20
29255;DHT22;16277;48.890;2.306;2023-09-07T20:26:50;30.40;84.70
29255;DHT22;16277;48.890;2.306;2023-09-07T20:41:55;30.30;84.10
29255;DHT22;16277;48.890;2.306;2023-09-07T20:57:00;30.20;84.40
29255;DHT22;16277;48.890;2.306;2023-09-07T21:12:05;30.10;85.30
29255;DHT22;16277;48.890;2.306;2023-09-07T21:27:10;30.00;87.10
29255;DHT22;16277;48.890;2.306;2023-09-07T21:42:15;29.90;88.00
29255;DHT22;16277;48.890;2.306;2023-09-07T21:57:19;29.80;88.70
29255;DHT22;16277;48.890;2.306;2023-09-07T22:12:27;29.70;88.30
29255;DHT22;16277;48.890;2.306;2023-09-07T22:27:31;29.40;90.40
29255;DHT22;16277;48.890;2.306;2023-09-07T22:42:36;29.30;90.70
29255;DHT22;16277;48.890;2.306;2023-09-07T22:57:40;29.20;90.20
29255;DHT22;16277;48.890;2.306;2023-09-07T23:13:04;29.10;90.40
29255;DHT22;16277;48.890;2.306;2023-09-07T23:28:09;29.10;90.60
29255;DHT22;16277;48.890;2.306;2023-09-07T23:43:14;29.10;91.10
29255;DHT22;16277;48.890;2.306;2023-09-07T23:58:18;28.90;91.40
